sensor_id;sensor_type;location;lat;lon;timestamp;temperature;humidity
23991;DHT22;12205;50.600;4.608;2023-05-08T00:00:12;15.00;99.90
23991;DHT22;12205;50.600;4.608;2023-05-08T00:02:39;14.90;99.90
23991;DHT22;12205;50.600;4.608;2023-05-08T00:05:07;14.90;99.90
23991;DHT22;12205;50.600;4.608;2023-05-08T00:07:35;14.90;99.90
23991;DHT22;12205;50.600;4.608;2023-05-08T00:10:03;14.90;99.90
23991;DHT22;12205;50.600;4.608;2023-05-08T00:12:30;14.80;99.90
23991;DHT22;12205;50.600;4.608;2023-05-08T00:14:57;14.80;99.90
23991;DHT22;12205;50.600;4.608;2023-05-08T00:17:25;14.80;99.90
23991;DHT22;12205;50.600;4.608;2023-05-08T00:19:52;14.80;99.90
23991;DHT22;12205;50.600;4.608;2023-05-08T00:22:19;14.70;99.90
23991;DHT22;12205;50.600;4.608;2023-05-08T00:24:46;14.70;99.90
23991;DHT22;12205;50.600;4.608;2023-05-08T00:27:13;14.70;99.90
23991;DHT22;12205;50.600;4.608;2023-05-08T00:29:42;14.60;99.90
23991;DHT22;12205;50.600;4.608;2023-05-08T00:32:08;14.60;99.90
23991;DHT22;12205;50.600;4.608;2023-05-08T00:34:37;14.60;99.90
23991;DHT22;12205;50.600;4.608;2023-05-08T00:37:04;14.50;99.90
23991;DHT22;12205;50.600;4.608;2023-05-08T00:39:30;14.50;99.90
23991;DHT22;12205;50.600;4.608;2023-05-08T00:41:58;14.50;99.90
23991;DHT22;12205;50.600;4.608;2023-05-08T00:44:25;14.50;99.90
23991;DHT22;12205;50.600;4.608;2023-05-08T00:46:51;14.40;99.90
23991;DHT22;12205;50.600;4.608;2023-05-08T00:49:19;14.40;99.90
23991;DHT22;12205;50.600;4.608;2023-05-08T00:51:50;14.40;99.90
23991;DHT22;12205;50.600;4.608;2023-05-08T00:54:18;14.30;99.90
23991;DHT22;12205;50.600;4.608;2023-05-08T00:56:46;14.30;99.90
23991;DHT22;12205;50.600;4.608;2023-05-08T00:59:15;14.30;99.90
23991;DHT22;12205;50.600;4.608;2023-05-08T01:01:43;14.30;99.90
23991;DHT22;12205;50.600;4.608;2023-05-08T01:04:13;14.30;99.90
23991;DHT22;12205;50.600;4.608;2023-05-08T01:06:40;14.20;99.90
23991;DHT22;12205;50.600;4.608;2023-05-08T01:09:09;14.20;99.90
23991;DHT22;12205;50.600;4.608;2023-05-08T01:11:39;14.10;99.90
23991;DHT22;12205;50.600;4.608;2023-05-08T01:14:12;14.10;99.90
23991;DHT22;12205;50.600;4.608;2023-05-08T01:16:44;14.10;99.90
23991;DHT22;12205;50.600;4.608;2023-05-08T01:19:26;14.10;99.90
23991;DHT22;12205;50.600;4.608;2023-05-08T01:22:06;14.10;99.90
23991;DHT22;12205;50.600;4.608;2023-05-08T01:28:07;14.10;99.90
23991;DHT22;12205;50.600;4.608;2023-05-08T01:31:06;14.20;99.90
23991;DHT22;12205;50.600;4.608;2023-05-08T01:33:41;14.20;99.90
23991;DHT22;12205;50.600;4.608;2023-05-08T01:36:19;14.30;99.90
23991;DHT22;12205;50.600;4.608;2023-05-08T01:38:54;14.30;99.90
23991;DHT22;12205;50.600;4.608;2023-05-08T01:41:25;14.30;99.90
23991;DHT22;12205;50.600;4.608;2023-05-08T01:44:05;14.40;99.90
23991;DHT22;12205;50.600;4.608;2023-05-08T01:46:36;14.40;99.90
23991;DHT22;12205;50.600;4.608;2023-05-08T01:49:07;14.50;99.90
23991;DHT22;12205;50.600;4.608;2023-05-08T01:51:38;14.50;99.90
23991;DHT22;12205;50.600;4.608;2023-05-08T01:54:10;14.60;99.90
23991;DHT22;12205;50.600;4.608;2023-05-08T01:56:40;14.70;99.90
23991;DHT22;12205;50.600;4.608;2023-05-08T01:59:09;14.70;99.90
23991;DHT22;12205;50.600;4.608;2023-05-08T02:01:39;14.80;99.90
23991;DHT22;12205;50.600;4.608;2023-05-08T02:04:09;14.80;99.90
23991;DHT22;12205;50.600;4.608;2023-05-08T02:06:37;14.80;99.90
23991;DHT22;12205;50.600;4.608;2023-05-08T02:09:08;14.90;99.90
23991;DHT22;12205;50.600;4.608;2023-05-08T02:11:37;15.00;99.90
23991;DHT22;12205;50.600;4.608;2023-05-08T02:14:06;15.00;99.90
23991;DHT22;12205;50.600;4.608;2023-05-08T02:16:35;15.10;99.90
23991;DHT22;12205;50.600;4.608;2023-05-08T02:19:03;15.10;99.90
23991;DHT22;12205;50.600;4.608;2023-05-08T02:21:32;15.20;99.90
23991;DHT22;12205;50.600;4.608;2023-05-08T02:24:02;15.30;99.90
23991;DHT22;12205;50.600;4.608;2023-05-08T02:26:31;15.30;99.90
23991;DHT22;12205;50.600;4.608;2023-05-08T02:29:00;15.30;99.90
23991;DHT22;12205;50.600;4.608;2023-05-08T02:31:28;15.40;99.90
23991;DHT22;12205;50.600;4.608;2023-05-08T02:33:57;15.40;99.90
23991;DHT22;12205;50.600;4.608;2023-05-08T02:36:26;15.30;99.90
23991;DHT22;12205;50.600;4.608;2023-05-08T02:38:58;15.30;99.90
23991;DHT22;12205;50.600;4.608;2023-05-08T02:41:28;15.30;99.90
23991;DHT22;12205;50.600;4.608;2023-05-08T02:43:56;15.30;99.90
23991;DHT22;12205;50.600;4.608;2023-05-08T02:46:26;15.30;99.90
23991;DHT22;12205;50.600;4.608;2023-05-08T02:48:59;15.40;99.90
23991;DHT22;12205;50.600;4.608;2023-05-08T02:51:36;15.40;99.90
23991;DHT22;12205;50.600;4.608;2023-05-08T02:54:09;15.50;99.90
23991;DHT22;12205;50.600;4.608;2023-05-08T02:56:54;15.50;99.90
23991;DHT22;12205;50.600;4.608;2023-05-08T02:59:28;15.50;99.90
23991;DHT22;12205;50.600;4.608;2023-05-08T03:02:07;15.60;99.90
23991;DHT22;12205;50.600;4.608;2023-05-08T03:04:40;15.60;99.90
23991;DHT22;12205;50.600;4.608;2023-05-08T03:07:09;15.70;99.90
23991;DHT22;12205;50.600;4.608;2023-05-08T03:09:42;15.70;99.90
23991;DHT22;12205;50.600;4.608;2023-05-08T03:12:13;15.80;99.90
23991;DHT22;12205;50.600;4.608;2023-05-08T03:14:44;15.80;99.90
23991;DHT22;12205;50.600;4.608;2023-05-08T03:17:14;15.80;99.90
23991;DHT22;12205;50.600;4.608;2023-05-08T03:19:44;15.80;99.90
23991;DHT22;12205;50.600;4.608;2023-05-08T03:22:13;15.80;99.90
23991;DHT22;12205;50.600;4.608;2023-05-08T03:24:43;15.90;99.90
23991;DHT22;12205;50.600;4.608;2023-05-08T03:27:12;15.90;99.90
23991;DHT22;12205;50.600;4.608;2023-05-08T03:29:40;15.90;99.90
23991;DHT22;12205;50.600;4.608;2023-05-08T03:32:08;15.90;99.90
23991;DHT22;12205;50.600;4.608;2023-05-08T03:34:38;15.90;99.90
23991;DHT22;12205;50.600;4.608;2023-05-08T03:37:06;15.90;99.90
23991;DHT22;12205;50.600;4.608;2023-05-08T03:39:33;16.00;99.90
23991;DHT22;12205;50.600;4.608;2023-05-08T03:42:02;16.00;99.90
23991;DHT22;12205;50.600;4.608;2023-05-08T03:44:29;16.00;99.90
23991;DHT22;12205;50.600;4.608;2023-05-08T03:46:56;16.00;99.90
23991;DHT22;12205;50.600;4.608;2023-05-08T03:49:24;16.00;99.90
23991;DHT22;12205;50.600;4.608;2023-05-08T03:51:52;16.00;99.90
23991;DHT22;12205;50.600;4.608;2023-05-08T03:54:20;16.00;99.90
23991;DHT22;12205;50.600;4.608;2023-05-08T03:56:51;16.00;99.90
23991;DHT22;12205;50.600;4.608;2023-05-08T03:59:27;16.00;99.90
23991;DHT22;12205;50.600;4.608;2023-05-08T04:02:01;16.10;99.90
23991;DHT22;12205;50.600;4.608;2023-05-08T04:04:37;16.10;99.90
23991;DHT22;12205;50.600;4.608;2023-05-08T04:07:10;16.10;99.90
23991;DHT22;12205;50.600;4.608;2023-05-08T04:09:49;16.10;99.90
23991;DHT22;12205;50.600;4.608;2023-05-08T04:12:20;16.10;99.90
23991;DHT22;12205;50.600;4.608;2023-05-08T04:14:53;16.10;99.90
23991;DHT22;12205;50.600;4.608;2023-05-08T04:17:33;16.10;99.90
23991;DHT22;12205;50.600;4.608;2023-05-08T04:20:03;16.10;99.90
23991;DHT22;12205;50.600;4.608;2023-05-08T04:22:32;16.10;99.90
23991;DHT22;12205;50.600;4.608;2023-05-08T04:25:03;16.10;99.90
23991;DHT22;12205;50.600;4.608;2023-05-08T04:27:33;16.10;99.90
23991;DHT22;12205;50.600;4.608;2023-05-08T04:30:02;16.10;99.90
23991;DHT22;12205;50.600;4.608;2023-05-08T04:32:31;16.10;99.90
23991;DHT22;12205;50.600;4.608;2023-05-08T04:35:00;16.10;99.90
23991;DHT22;12205;50.600;4.608;2023-05-08T04:37:28;16.10;99.90
23991;DHT22;12205;50.600;4.608;2023-05-08T04:39:58;16.10;99.90
23991;DHT22;12205;50.600;4.608;2023-05-08T04:42:25;16.10;99.90
23991;DHT22;12205;50.600;4.608;2023-05-08T04:44:56;16.20;99.90
23991;DHT22;12205;50.600;4.608;2023-05-08T04:47:24;16.20;99.90
23991;DHT22;12205;50.600;4.608;2023-05-08T04:49:51;16.20;99.90
23991;DHT22;12205;50.600;4.608;2023-05-08T04:52:18;16.20;99.90
23991;DHT22;12205;50.600;4.608;2023-05-08T04:54:45;16.20;99.90
23991;DHT22;12205;50.600;4.608;2023-05-08T04:57:12;16.30;99.90
23991;DHT22;12205;50.600;4.608;2023-05-08T04:59:39;16.30;99.90
23991;DHT22;12205;50.600;4.608;2023-05-08T05:02:07;16.40;99.90
23991;DHT22;12205;50.600;4.608;2023-05-08T05:04:36;16.40;99.90
23991;DHT22;12205;50.600;4.608;2023-05-08T05:07:04;16.40;99.90
23991;DHT22;12205;50.600;4.608;2023-05-08T05:09:32;16.40;99.90
23991;DHT22;12205;50.600;4.608;2023-05-08T05:12:01;16.50;99.90
23991;DHT22;12205;50.600;4.608;2023-05-08T05:14:29;16.50;99.90
23991;DHT22;12205;50.600;4.608;2023-05-08T05:16:56;16.50;99.90
23991;DHT22;12205;50.600;4.608;2023-05-08T05:19:23;16.60;99.90
23991;DHT22;12205;50.600;4.608;2023-05-08T05:21:51;16.60;99.90
23991;DHT22;12205;50.600;4.608;2023-05-08T05:24:18;16.70;99.90
23991;DHT22;12205;50.600;4.608;2023-05-08T05:26:45;16.70;99.90
23991;DHT22;12205;50.600;4.608;2023-05-08T05:29:12;16.80;99.90
23991;DHT22;12205;50.600;4.608;2023-05-08T05:31:39;16.90;99.90
23991;DHT22;12205;50.600;4.608;2023-05-08T05:34:07;16.90;99.90
23991;DHT22;12205;50.600;4.608;2023-05-08T05:36:34;16.90;99.90
23991;DHT22;12205;50.600;4.608;2023-05-08T05:39:03;17.00;99.90
23991;DHT22;12205;50.600;4.608;2023-05-08T05:41:31;17.00;99.90
23991;DHT22;12205;50.600;4.608;2023-05-08T05:43:58;17.10;99.90
23991;DHT22;12205;50.600;4.608;2023-05-08T05:46:26;17.10;99.90
23991;DHT22;12205;50.600;4.608;2023-05-08T05:48:58;17.10;99.90
23991;DHT22;12205;50.600;4.608;2023-05-08T05:51:25;17.20;99.90
23991;DHT22;12205;50.600;4.608;2023-05-08T05:53:54;17.20;99.90
23991;DHT22;12205;50.600;4.608;2023-05-08T05:56:24;17.10;99.90
23991;DHT22;12205;50.600;4.608;2023-05-08T05:58:51;17.10;99.90
23991;DHT22;12205;50.600;4.608;2023-05-08T06:01:18;17.20;99.90
23991;DHT22;12205;50.600;4.608;2023-05-08T06:03:45;17.10;99.90
23991;DHT22;12205;50.600;4.608;2023-05-08T06:06:12;17.20;99.90
23991;DHT22;12205;50.600;4.608;2023-05-08T06:08:39;17.10;99.90
23991;DHT22;12205;50.600;4.608;2023-05-08T06:11:06;17.10;99.90
23991;DHT22;12205;50.600;4.608;2023-05-08T06:13:35;16.90;99.90
23991;DHT22;12205;50.600;4.608;2023-05-08T06:16:02;16.60;99.90
23991;DHT22;12205;50.600;4.608;2023-05-08T06:18:29;16.50;99.90
23991;DHT22;12205;50.600;4.608;2023-05-08T06:20:56;16.40;99.90
23991;DHT22;12205;50.600;4.608;2023-05-08T06:23:23;16.20;99.90
23991;DHT22;12205;50.600;4.608;2023-05-08T06:25:51;16.20;99.90
23991;DHT22;12205;50.600;4.608;2023-05-08T06:28:18;16.20;99.90
23991;DHT22;12205;50.600;4.608;2023-05-08T06:30:48;16.10;99.90
23991;DHT22;12205;50.600;4.608;2023-05-08T06:33:15;16.00;99.90
23991;DHT22;12205;50.600;4.608;2023-05-08T06:35:45;16.00;99.90
23991;DHT22;12205;50.600;4.608;2023-05-08T06:38:12;16.00;99.90
23991;DHT22;12205;50.600;4.608;2023-05-08T06:40:41;16.10;99.90
23991;DHT22;12205;50.600;4.608;2023-05-08T06:43:08;16.20;99.90
23991;DHT22;12205;50.600;4.608;2023-05-08T06:45:35;16.20;99.90
23991;DHT22;12205;50.600;4.608;2023-05-08T06:48:04;16.20;99.90
23991;DHT22;12205;50.600;4.608;2023-05-08T06:50:31;16.30;99.90
23991;DHT22;12205;50.600;4.608;2023-05-08T06:52:58;16.40;99.90
23991;DHT22;12205;50.600;4.608;2023-05-08T06:55:25;16.40;99.90
23991;DHT22;12205;50.600;4.608;2023-05-08T06:57:52;16.50;99.90
23991;DHT22;12205;50.600;4.608;2023-05-08T07:00:19;16.60;99.90
23991;DHT22;12205;50.600;4.608;2023-05-08T07:02:46;16.70;99.90
23991;DHT22;12205;50.600;4.608;2023-05-08T07:05:14;16.80;99.90
23991;DHT22;12205;50.600;4.608;2023-05-08T07:07:42;16.90;99.90
23991;DHT22;12205;50.600;4.608;2023-05-08T07:10:09;16.90;99.90
23991;DHT22;12205;50.600;4.608;2023-05-08T07:12:36;17.00;99.90
23991;DHT22;12205;50.600;4.608;2023-05-08T07:15:04;17.00;99.90
23991;DHT22;12205;50.600;4.608;2023-05-08T07:17:31;17.10;99.90
23991;DHT22;12205;50.600;4.608;2023-05-08T07:20:01;17.20;99.90
23991;DHT22;12205;50.600;4.608;2023-05-08T07:22:30;17.30;99.90
23991;DHT22;12205;50.600;4.608;2023-05-08T07:24:57;17.40;99.90
23991;DHT22;12205;50.600;4.608;2023-05-08T07:27:24;17.40;99.90
23991;DHT22;12205;50.600;4.608;2023-05-08T07:29:50;17.50;99.90
23991;DHT22;12205;50.600;4.608;2023-05-08T07:32:17;17.60;99.90
23991;DHT22;12205;50.600;4.608;2023-05-08T07:34:44;17.60;99.90
23991;DHT22;12205;50.600;4.608;2023-05-08T07:37:11;17.60;99.90
23991;DHT22;12205;50.600;4.608;2023-05-08T07:39:40;17.70;99.90
23991;DHT22;12205;50.600;4.608;2023-05-08T07:42:06;17.70;99.90
23991;DHT22;12205;50.600;4.608;2023-05-08T07:44:33;17.70;99.90
23991;DHT22;12205;50.600;4.608;2023-05-08T07:47:00;17.80;99.90
23991;DHT22;12205;50.600;4.608;2023-05-08T07:49:28;17.80;99.90
23991;DHT22;12205;50.600;4.608;2023-05-08T07:51:55;17.90;99.90
23991;DHT22;12205;50.600;4.608;2023-05-08T07:54:21;18.10;99.90
23991;DHT22;12205;50.600;4.608;2023-05-08T07:56:50;18.20;99.90
23991;DHT22;12205;50.600;4.608;2023-05-08T07:59:17;18.20;99.90
23991;DHT22;12205;50.600;4.608;2023-05-08T08:01:44;18.20;99.90
23991;DHT22;12205;50.600;4.608;2023-05-08T08:04:11;18.20;99.90
23991;DHT22;12205;50.600;4.608;2023-05-08T08:06:39;18.30;99.90
23991;DHT22;12205;50.600;4.608;2023-05-08T08:09:06;18.20;99.90
23991;DHT22;12205;50.600;4.608;2023-05-08T08:11:33;18.20;99.90
23991;DHT22;12205;50.600;4.608;2023-05-08T08:14:01;18.30;99.90
23991;DHT22;12205;50.600;4.608;2023-05-08T08:16:28;18.40;99.90
23991;DHT22;12205;50.600;4.608;2023-05-08T08:18:55;18.50;99.90
23991;DHT22;12205;50.600;4.608;2023-05-08T08:21:22;18.50;99.90
23991;DHT22;12205;50.600;4.608;2023-05-08T08:23:49;18.50;99.90
23991;DHT22;12205;50.600;4.608;2023-05-08T08:26:16;18.60;99.90
23991;DHT22;12205;50.600;4.608;2023-05-08T08:28:42;18.60;99.90
23991;DHT22;12205;50.600;4.608;2023-05-08T08:31:11;18.60;99.90
23991;DHT22;12205;50.600;4.608;2023-05-08T08:33:38;18.80;99.90
23991;DHT22;12205;50.600;4.608;2023-05-08T08:36:07;18.80;99.90
23991;DHT22;12205;50.600;4.608;2023-05-08T08:38:38;18.90;99.90
23991;DHT22;12205;50.600;4.608;2023-05-08T08:41:05;18.90;99.90
23991;DHT22;12205;50.600;4.608;2023-05-08T08:43:31;19.00;99.90
23991;DHT22;12205;50.600;4.608;2023-05-08T08:46:01;19.10;99.90
23991;DHT22;12205;50.600;4.608;2023-05-08T08:48:37;19.10;99.90
23991;DHT22;12205;50.600;4.608;2023-05-08T08:51:11;19.20;99.90
23991;DHT22;12205;50.600;4.608;2023-05-08T08:53:43;19.30;99.90
23991;DHT22;12205;50.600;4.608;2023-05-08T08:56:13;19.30;99.90
23991;DHT22;12205;50.600;4.608;2023-05-08T08:58:46;19.30;99.90
23991;DHT22;12205;50.600;4.608;2023-05-08T09:01:16;19.40;99.90
23991;DHT22;12205;50.600;4.608;2023-05-08T09:03:45;19.40;99.90
23991;DHT22;12205;50.600;4.608;2023-05-08T09:06:13;19.60;99.90
23991;DHT22;12205;50.600;4.608;2023-05-08T09:08:40;19.70;99.90
23991;DHT22;12205;50.600;4.608;2023-05-08T09:11:07;19.70;99.90
23991;DHT22;12205;50.600;4.608;2023-05-08T09:13:34;19.80;99.90
23991;DHT22;12205;50.600;4.608;2023-05-08T09:16:01;19.80;99.90
23991;DHT22;12205;50.600;4.608;2023-05-08T09:18:29;19.80;99.90
23991;DHT22;12205;50.600;4.608;2023-05-08T09:20:57;19.90;99.90
23991;DHT22;12205;50.600;4.608;2023-05-08T09:23:24;19.80;99.90
23991;DHT22;12205;50.600;4.608;2023-05-08T09:25:51;19.80;99.90
23991;DHT22;12205;50.600;4.608;2023-05-08T09:28:20;19.80;99.90
23991;DHT22;12205;50.600;4.608;2023-05-08T09:30:48;19.70;99.90
23991;DHT22;12205;50.600;4.608;2023-05-08T09:33:16;19.50;99.90
23991;DHT22;12205;50.600;4.608;2023-05-08T09:35:43;19.40;99.90
23991;DHT22;12205;50.600;4.608;2023-05-08T09:38:33;19.50;99.90
23991;DHT22;12205;50.600;4.608;2023-05-08T09:41:08;19.60;99.90
23991;DHT22;12205;50.600;4.608;2023-05-08T09:43:35;19.80;99.90
23991;DHT22;12205;50.600;4.608;2023-05-08T09:46:22;20.00;99.90
23991;DHT22;12205;50.600;4.608;2023-05-08T09:48:51;20.30;99.90
23991;DHT22;12205;50.600;4.608;2023-05-08T09:51:18;20.40;99.90
23991;DHT22;12205;50.600;4.608;2023-05-08T09:53:49;20.40;99.90
23991;DHT22;12205;50.600;4.608;2023-05-08T09:56:28;20.50;99.90
23991;DHT22;12205;50.600;4.608;2023-05-08T09:58:55;20.50;99.90
23991;DHT22;12205;50.600;4.608;2023-05-08T10:01:30;20.30;99.90
23991;DHT22;12205;50.600;4.608;2023-05-08T10:03:57;20.40;99.90
23991;DHT22;12205;50.600;4.608;2023-05-08T10:06:24;20.40;99.90
23991;DHT22;12205;50.600;4.608;2023-05-08T10:09:21;20.40;99.90
23991;DHT22;12205;50.600;4.608;2023-05-08T10:11:49;20.40;99.90
23991;DHT22;12205;50.600;4.608;2023-05-08T10:14:17;20.40;99.90
23991;DHT22;12205;50.600;4.608;2023-05-08T10:16:46;20.40;99.90
23991;DHT22;12205;50.600;4.608;2023-05-08T10:19:15;20.60;99.90
23991;DHT22;12205;50.600;4.608;2023-05-08T10:21:45;20.60;99.90
23991;DHT22;12205;50.600;4.608;2023-05-08T10:24:15;20.70;99.90
23991;DHT22;12205;50.600;4.608;2023-05-08T10:26:51;20.80;99.90
23991;DHT22;12205;50.600;4.608;2023-05-08T10:29:23;20.90;99.90
23991;DHT22;12205;50.600;4.608;2023-05-08T10:31:53;20.90;99.90
23991;DHT22;12205;50.600;4.608;2023-05-08T10:34:26;20.80;99.90
23991;DHT22;12205;50.600;4.608;2023-05-08T10:36:54;20.90;99.90
23991;DHT22;12205;50.600;4.608;2023-05-08T10:39:21;20.90;99.90
23991;DHT22;12205;50.600;4.608;2023-05-08T10:41:50;20.90;99.90
23991;DHT22;12205;50.600;4.608;2023-05-08T10:44:18;21.00;99.90
23991;DHT22;12205;50.600;4.608;2023-05-08T10:46:51;21.10;99.90
23991;DHT22;12205;50.600;4.608;2023-05-08T10:49:24;21.00;99.90
23991;DHT22;12205;50.600;4.608;2023-05-08T10:52:00;21.00;99.90
23991;DHT22;12205;50.600;4.608;2023-05-08T10:54:41;21.10;99.90
23991;DHT22;12205;50.600;4.608;2023-05-08T10:57:14;21.30;99.90
23991;DHT22;12205;50.600;4.608;2023-05-08T10:59:44;21.60;99.90
23991;DHT22;12205;50.600;4.608;2023-05-08T11:02:12;21.70;99.90
23991;DHT22;12205;50.600;4.608;2023-05-08T11:04:39;21.60;99.90
23991;DHT22;12205;50.600;4.608;2023-05-08T11:07:06;21.60;99.90
23991;DHT22;12205;50.600;4.608;2023-05-08T11:09:45;21.60;99.90
23991;DHT22;12205;50.600;4.608;2023-05-08T11:12:19;21.70;99.90
23991;DHT22;12205;50.600;4.608;2023-05-08T11:14:55;21.70;99.90
23991;DHT22;12205;50.600;4.608;2023-05-08T11:17:23;21.70;99.90
23991;DHT22;12205;50.600;4.608;2023-05-08T11:19:55;21.70;99.90
23991;DHT22;12205;50.600;4.608;2023-05-08T11:22:27;21.80;99.90
23991;DHT22;12205;50.600;4.608;2023-05-08T11:24:59;21.90;99.90
23991;DHT22;12205;50.600;4.608;2023-05-08T11:30:36;22.20;99.90
23991;DHT22;12205;50.600;4.608;2023-05-08T11:33:14;22.20;99.90
23991;DHT22;12205;50.600;4.608;2023-05-08T11:35:45;22.20;99.90
23991;DHT22;12205;50.600;4.608;2023-05-08T11:38:17;22.30;99.90
23991;DHT22;12205;50.600;4.608;2023-05-08T11:40:47;22.30;99.90
23991;DHT22;12205;50.600;4.608;2023-05-08T11:43:33;22.20;99.90
23991;DHT22;12205;50.600;4.608;2023-05-08T11:46:04;22.20;99.90
23991;DHT22;12205;50.600;4.608;2023-05-08T11:48:34;22.30;99.90
23991;DHT22;12205;50.600;4.608;2023-05-08T11:51:02;22.50;99.90
23991;DHT22;12205;50.600;4.608;2023-05-08T11:53:29;22.50;99.90
23991;DHT22;12205;50.600;4.608;2023-05-08T11:55:58;22.40;99.90
23991;DHT22;12205;50.600;4.608;2023-05-08T11:58:26;22.50;99.90
23991;DHT22;12205;50.600;4.608;2023-05-08T12:00:53;22.50;99.90
23991;DHT22;12205;50.600;4.608;2023-05-08T12:03:21;22.50;99.90
23991;DHT22;12205;50.600;4.608;2023-05-08T12:05:50;22.60;99.90
23991;DHT22;12205;50.600;4.608;2023-05-08T12:08:18;22.80;99.90
23991;DHT22;12205;50.600;4.608;2023-05-08T12:10:49;23.10;99.90
23991;DHT22;12205;50.600;4.608;2023-05-08T12:13:17;23.40;99.90
23991;DHT22;12205;50.600;4.608;2023-05-08T12:15:46;23.40;99.90
23991;DHT22;12205;50.600;4.608;2023-05-08T12:18:14;23.40;99.90
23991;DHT22;12205;50.600;4.608;2023-05-08T12:20:41;23.50;99.90
23991;DHT22;12205;50.600;4.608;2023-05-08T12:23:08;23.70;99.90
23991;DHT22;12205;50.600;4.608;2023-05-08T12:25:36;23.40;99.90
23991;DHT22;12205;50.600;4.608;2023-05-08T12:28:05;23.30;99.90
23991;DHT22;12205;50.600;4.608;2023-05-08T12:30:32;23.30;99.90
23991;DHT22;12205;50.600;4.608;2023-05-08T12:33:01;23.40;99.90
23991;DHT22;12205;50.600;4.608;2023-05-08T12:35:29;23.20;99.90
23991;DHT22;12205;50.600;4.608;2023-05-08T12:38:00;23.00;99.90
23991;DHT22;12205;50.600;4.608;2023-05-08T12:40:28;23.10;99.90
23991;DHT22;12205;50.600;4.608;2023-05-08T12:42:56;23.60;99.90
23991;DHT22;12205;50.600;4.608;2023-05-08T12:45:24;24.10;99.90
23991;DHT22;12205;50.600;4.608;2023-05-08T12:47:53;24.40;99.90
23991;DHT22;12205;50.600;4.608;2023-05-08T12:50:24;24.50;99.90
23991;DHT22;12205;50.600;4.608;2023-05-08T12:52:53;24.60;99.90
23991;DHT22;12205;50.600;4.608;2023-05-08T12:55:21;24.70;99.90
23991;DHT22;12205;50.600;4.608;2023-05-08T12:57:48;24.80;99.90
23991;DHT22;12205;50.600;4.608;2023-05-08T13:00:17;25.20;99.90
23991;DHT22;12205;50.600;4.608;2023-05-08T13:02:51;25.40;99.90
23991;DHT22;12205;50.600;4.608;2023-05-08T13:05:19;25.70;99.90
23991;DHT22;12205;50.600;4.608;2023-05-08T13:07:48;25.90;99.90
23991;DHT22;12205;50.600;4.608;2023-05-08T13:10:16;26.10;99.90
23991;DHT22;12205;50.600;4.608;2023-05-08T13:12:44;26.30;99.90
23991;DHT22;12205;50.600;4.608;2023-05-08T13:15:11;26.50;99.90
23991;DHT22;12205;50.600;4.608;2023-05-08T13:17:38;26.60;99.90
23991;DHT22;12205;50.600;4.608;2023-05-08T13:20:06;26.90;99.90
23991;DHT22;12205;50.600;4.608;2023-05-08T13:22:33;27.00;99.90
23991;DHT22;12205;50.600;4.608;2023-05-08T13:25:02;27.30;99.90
23991;DHT22;12205;50.600;4.608;2023-05-08T13:27:29;27.40;99.90
23991;DHT22;12205;50.600;4.608;2023-05-08T13:29:56;27.20;99.90
23991;DHT22;12205;50.600;4.608;2023-05-08T13:32:23;27.40;99.90
23991;DHT22;12205;50.600;4.608;2023-05-08T13:34:50;27.70;99.90
23991;DHT22;12205;50.600;4.608;2023-05-08T13:37:17;28.00;99.90
23991;DHT22;12205;50.600;4.608;2023-05-08T13:39:43;28.20;99.90
23991;DHT22;12205;50.600;4.608;2023-05-08T13:42:12;28.40;99.90
23991;DHT22;12205;50.600;4.608;2023-05-08T13:44:39;28.40;99.90
23991;DHT22;12205;50.600;4.608;2023-05-08T13:47:06;28.10;99.90
23991;DHT22;12205;50.600;4.608;2023-05-08T13:49:33;28.20;99.90
23991;DHT22;12205;50.600;4.608;2023-05-08T13:52:00;28.30;99.90
23991;DHT22;12205;50.600;4.608;2023-05-08T13:54:27;28.40;99.90
23991;DHT22;12205;50.600;4.608;2023-05-08T13:56:54;28.30;99.90
23991;DHT22;12205;50.600;4.608;2023-05-08T13:59:22;28.10;99.90
23991;DHT22;12205;50.600;4.608;2023-05-08T14:01:49;28.00;99.90
23991;DHT22;12205;50.600;4.608;2023-05-08T14:04:16;28.00;99.90
23991;DHT22;12205;50.600;4.608;2023-05-08T14:06:43;27.70;99.90
23991;DHT22;12205;50.600;4.608;2023-05-08T14:09:10;27.20;99.90
23991;DHT22;12205;50.600;4.608;2023-05-08T14:11:37;26.70;99.90
23991;DHT22;12205;50.600;4.608;2023-05-08T14:14:04;26.40;99.90
23991;DHT22;12205;50.600;4.608;2023-05-08T14:16:32;26.20;99.90
23991;DHT22;12205;50.600;4.608;2023-05-08T14:18:59;25.90;99.90
23991;DHT22;12205;50.600;4.608;2023-05-08T14:21:26;25.70;99.90
23991;DHT22;12205;50.600;4.608;2023-05-08T14:23:53;25.50;99.90
23991;DHT22;12205;50.600;4.608;2023-05-08T14:26:20;25.30;99.90
23991;DHT22;12205;50.600;4.608;2023-05-08T14:28:47;24.90;99.90
23991;DHT22;12205;50.600;4.608;2023-05-08T14:31:14;24.70;99.90
23991;DHT22;12205;50.600;4.608;2023-05-08T14:33:42;24.50;99.90
23991;DHT22;12205;50.600;4.608;2023-05-08T14:36:09;24.10;99.90
23991;DHT22;12205;50.600;4.608;2023-05-08T14:38:36;23.90;99.90
23991;DHT22;12205;50.600;4.608;2023-05-08T14:41:03;23.80;99.90
23991;DHT22;12205;50.600;4.608;2023-05-08T14:43:30;23.90;99.90
23991;DHT22;12205;50.600;4.608;2023-05-08T14:45:57;23.90;99.90
23991;DHT22;12205;50.600;4.608;2023-05-08T14:48:24;23.90;99.90
23991;DHT22;12205;50.600;4.608;2023-05-08T14:50:53;23.80;99.90
23991;DHT22;12205;50.600;4.608;2023-05-08T14:53:20;23.60;99.90
23991;DHT22;12205;50.600;4.608;2023-05-08T14:55:47;23.50;99.90
23991;DHT22;12205;50.600;4.608;2023-05-08T14:58:14;23.50;99.90
23991;DHT22;12205;50.600;4.608;2023-05-08T15:00:41;23.60;99.90
23991;DHT22;12205;50.600;4.608;2023-05-08T15:03:08;23.80;99.90
23991;DHT22;12205;50.600;4.608;2023-05-08T15:05:35;24.00;99.90
23991;DHT22;12205;50.600;4.608;2023-05-08T15:08:04;24.00;99.90
23991;DHT22;12205;50.600;4.608;2023-05-08T15:10:31;24.10;99.90
23991;DHT22;12205;50.600;4.608;2023-05-08T15:12:57;24.20;99.90
23991;DHT22;12205;50.600;4.608;2023-05-08T15:15:25;24.30;99.90
23991;DHT22;12205;50.600;4.608;2023-05-08T15:17:52;23.80;99.90
23991;DHT22;12205;50.600;4.608;2023-05-08T15:20:19;23.40;99.90
23991;DHT22;12205;50.600;4.608;2023-05-08T15:22:46;23.00;99.90
23991;DHT22;12205;50.600;4.608;2023-05-08T15:25:14;22.80;99.90
23991;DHT22;12205;50.600;4.608;2023-05-08T15:27:41;22.70;99.90
23991;DHT22;12205;50.600;4.608;2023-05-08T15:30:09;22.70;99.90
23991;DHT22;12205;50.600;4.608;2023-05-08T15:32:36;22.60;99.90
23991;DHT22;12205;50.600;4.608;2023-05-08T15:35:05;22.30;99.90
23991;DHT22;12205;50.600;4.608;2023-05-08T15:37:32;22.20;99.90
23991;DHT22;12205;50.600;4.608;2023-05-08T15:39:59;22.10;99.90
23991;DHT22;12205;50.600;4.608;2023-05-08T15:42:28;21.90;99.90
23991;DHT22;12205;50.600;4.608;2023-05-08T15:44:55;21.80;99.90
23991;DHT22;12205;50.600;4.608;2023-05-08T15:47:22;21.80;99.90